sensor_id;sensor_type;location;lat;lon;timestamp;P1;durP1;ratioP1;P2;durP2;ratioP2
10041;SDS011;5061;49.068;12.058;2023-11-19T00:01:11;2.00;;;1.77;;
10041;SDS011;5061;49.068;12.058;2023-11-19T00:04:31;1.80;;;1.60;;
10041;SDS011;5061;49.068;12.058;2023-11-19T00:07:52;1.80;;;1.70;;
10041;SDS011;5061;49.068;12.058;2023-11-19T00:11:13;1.77;;;1.67;;
10041;SDS011;5061;49.068;12.058;2023-11-19T00:14:35;2.10;;;1.90;;
10041;SDS011;5061;49.068;12.058;2023-11-19T00:17:56;1.87;;;1.77;;
10041;SDS011;5061;49.068;12.058;2023-11-19T00:21:16;2.17;;;1.23;;
10041;SDS011;5061;49.068;12.058;2023-11-19T00:24:37;1.67;;;1.37;;
10041;SDS011;5061;49.068;12.058;2023-11-19T00:27:57;1.87;;;1.77;;
10041;SDS011;5061;49.068;12.058;2023-11-19T00:31:19;1.20;;;1.10;;
10041;SDS011;5061;49.068;12.058;2023-11-19T00:34:40;1.47;;;1.23;;
10041;SDS011;5061;49.068;12.058;2023-11-19T00:38:03;1.20;;;1.10;;
10041;SDS011;5061;49.068;12.058;2023-11-19T00:41:24;1.23;;;1.13;;
10041;SDS011;5061;49.068;12.058;2023-11-19T00:44:45;1.63;;;1.53;;
10041;SDS011;5061;49.068;12.058;2023-11-19T00:48:06;1.30;;;1.20;;
10041;SDS011;5061;49.068;12.058;2023-11-19T00:51:27;2.17;;;1.90;;
10041;SDS011;5061;49.068;12.058;2023-11-19T00:54:47;1.20;;;1.07;;
10041;SDS011;5061;49.068;12.058;2023-11-19T00:58:08;2.23;;;1.50;;
10041;SDS011;5061;49.068;12.058;2023-11-19T01:01:28;1.43;;;1.33;;
10041;SDS011;5061;49.068;12.058;2023-11-19T01:04:49;3.33;;;1.33;;
10041;SDS011;5061;49.068;12.058;2023-11-19T01:08:10;1.53;;;1.43;;
10041;SDS011;5061;49.068;12.058;2023-11-19T01:11:31;2.00;;;1.57;;
10041;SDS011;5061;49.068;12.058;2023-11-19T01:14:51;1.47;;;1.37;;
10041;SDS011;5061;49.068;12.058;2023-11-19T01:18:12;2.80;;;1.70;;
10041;SDS011;5061;49.068;12.058;2023-11-19T01:21:33;1.70;;;1.60;;
10041;SDS011;5061;49.068;12.058;2023-11-19T01:24:53;1.93;;;1.73;;
10041;SDS011;5061;49.068;12.058;2023-11-19T01:28:14;1.40;;;1.30;;
10041;SDS011;5061;49.068;12.058;2023-11-19T01:31:34;1.50;;;1.40;;
10041;SDS011;5061;49.068;12.058;2023-11-19T01:34:55;1.73;;;1.63;;
10041;SDS011;5061;49.068;12.058;2023-11-19T01:38:16;1.30;;;1.20;;
10041;SDS011;5061;49.068;12.058;2023-11-19T01:41:36;1.70;;;1.60;;
10041;SDS011;5061;49.068;12.058;2023-11-19T01:44:59;1.40;;;1.30;;
10041;SDS011;5061;49.068;12.058;2023-11-19T01:48:20;1.80;;;1.47;;
10041;SDS011;5061;49.068;12.058;2023-11-19T01:51:41;2.47;;;1.83;;
10041;SDS011;5061;49.068;12.058;2023-11-19T01:55:02;1.43;;;1.30;;
10041;SDS011;5061;49.068;12.058;2023-11-19T01:58:23;1.43;;;1.33;;
10041;SDS011;5061;49.068;12.058;2023-11-19T02:01:45;2.73;;;1.50;;
10041;SDS011;5061;49.068;12.058;2023-11-19T02:05:06;1.80;;;1.70;;
10041;SDS011;5061;49.068;12.058;2023-11-19T02:08:27;1.40;;;1.30;;
10041;SDS011;5061;49.068;12.058;2023-11-19T02:11:47;1.87;;;1.67;;
10041;SDS011;5061;49.068;12.058;2023-11-19T02:15:11;2.10;;;1.87;;
10041;SDS011;5061;49.068;12.058;2023-11-19T02:18:32;3.73;;;1.47;;
10041;SDS011;5061;49.068;12.058;2023-11-19T02:21:52;1.60;;;1.50;;
10041;SDS011;5061;49.068;12.058;2023-11-19T02:25:20;1.27;;;1.17;;
10041;SDS011;5061;49.068;12.058;2023-11-19T02:28:49;1.67;;;1.57;;
10041;SDS011;5061;49.068;12.058;2023-11-19T02:32:10;1.40;;;1.30;;
10041;SDS011;5061;49.068;12.058;2023-11-19T02:35:33;1.43;;;1.33;;
10041;SDS011;5061;49.068;12.058;2023-11-19T02:38:54;2.70;;;2.07;;
10041;SDS011;5061;49.068;12.058;2023-11-19T02:42:15;1.40;;;1.27;;
10041;SDS011;5061;49.068;12.058;2023-11-19T02:45:35;1.90;;;1.80;;
10041;SDS011;5061;49.068;12.058;2023-11-19T02:48:56;1.77;;;1.30;;
10041;SDS011;5061;49.068;12.058;2023-11-19T02:52:17;1.50;;;1.40;;
10041;SDS011;5061;49.068;12.058;2023-11-19T02:55:38;1.30;;;1.20;;
10041;SDS011;5061;49.068;12.058;2023-11-19T02:59:01;1.43;;;1.10;;
10041;SDS011;5061;49.068;12.058;2023-11-19T03:02:28;1.63;;;1.33;;
10041;SDS011;5061;49.068;12.058;2023-11-19T03:05:54;1.50;;;1.40;;
10041;SDS011;5061;49.068;12.058;2023-11-19T03:09:15;1.40;;;1.30;;
10041;SDS011;5061;49.068;12.058;2023-11-19T03:12:35;1.90;;;1.70;;
10041;SDS011;5061;49.068;12.058;2023-11-19T03:15:56;1.37;;;1.27;;
10041;SDS011;5061;49.068;12.058;2023-11-19T03:19:16;1.97;;;1.73;;
10041;SDS011;5061;49.068;12.058;2023-11-19T03:22:37;2.00;;;1.77;;
10041;SDS011;5061;49.068;12.058;2023-11-19T03:25:58;1.70;;;1.60;;
10041;SDS011;5061;49.068;12.058;2023-11-19T03:29:19;1.87;;;1.63;;
10041;SDS011;5061;49.068;12.058;2023-11-19T03:32:39;1.80;;;1.50;;
10041;SDS011;5061;49.068;12.058;2023-11-19T03:36:00;1.60;;;1.50;;
10041;SDS011;5061;49.068;12.058;2023-11-19T03:39:20;1.97;;;1.77;;
10041;SDS011;5061;49.068;12.058;2023-11-19T03:42:45;1.43;;;1.33;;
10041;SDS011;5061;49.068;12.058;2023-11-19T03:46:18;1.40;;;1.30;;
10041;SDS011;5061;49.068;12.058;2023-11-19T03:49:39;1.53;;;1.43;;
10041;SDS011;5061;49.068;12.058;2023-11-19T03:53:00;1.67;;;1.57;;
10041;SDS011;5061;49.068;12.058;2023-11-19T03:56:22;1.53;;;1.43;;
10041;SDS011;5061;49.068;12.058;2023-11-19T03:59:43;1.40;;;1.30;;
10041;SDS011;5061;49.068;12.058;2023-11-19T04:03:04;1.40;;;1.27;;
10041;SDS011;5061;49.068;12.058;2023-11-19T04:06:25;1.60;;;1.50;;
10041;SDS011;5061;49.068;12.058;2023-11-19T04:09:46;1.50;;;1.40;;
10041;SDS011;5061;49.068;12.058;2023-11-19T04:13:06;1.60;;;1.50;;
10041;SDS011;5061;49.068;12.058;2023-11-19T04:16:27;1.40;;;1.30;;
10041;SDS011;5061;49.068;12.058;2023-11-19T04:19:48;1.80;;;1.70;;
10041;SDS011;5061;49.068;12.058;2023-11-19T04:23:09;1.30;;;1.20;;
10041;SDS011;5061;49.068;12.058;2023-11-19T04:26:30;1.43;;;1.33;;
10041;SDS011;5061;49.068;12.058;2023-11-19T04:29:51;1.63;;;1.53;;
10041;SDS011;5061;49.068;12.058;2023-11-19T04:33:12;2.10;;;1.73;;
10041;SDS011;5061;49.068;12.058;2023-11-19T04:36:32;1.87;;;1.60;;
10041;SDS011;5061;49.068;12.058;2023-11-19T04:39:53;1.40;;;1.30;;
10041;SDS011;5061;49.068;12.058;2023-11-19T04:43:14;1.70;;;1.60;;
10041;SDS011;5061;49.068;12.058;2023-11-19T04:46:35;2.00;;;1.80;;
10041;SDS011;5061;49.068;12.058;2023-11-19T04:49:56;1.90;;;1.70;;
10041;SDS011;5061;49.068;12.058;2023-11-19T04:53:16;1.97;;;1.80;;
10041;SDS011;5061;49.068;12.058;2023-11-19T04:56:37;2.23;;;2.03;;
10041;SDS011;5061;49.068;12.058;2023-11-19T04:59:58;2.10;;;1.93;;
10041;SDS011;5061;49.068;12.058;2023-11-19T05:03:18;2.23;;;2.03;;
10041;SDS011;5061;49.068;12.058;2023-11-19T05:06:39;1.70;;;1.60;;
10041;SDS011;5061;49.068;12.058;2023-11-19T05:09:59;1.90;;;1.70;;
10041;SDS011;5061;49.068;12.058;2023-11-19T05:13:20;1.97;;;1.77;;
10041;SDS011;5061;49.068;12.058;2023-11-19T05:16:41;2.20;;;1.93;;
10041;SDS011;5061;49.068;12.058;2023-11-19T05:20:03;3.00;;;2.00;;
10041;SDS011;5061;49.068;12.058;2023-11-19T05:23:24;2.20;;;2.00;;
10041;SDS011;5061;49.068;12.058;2023-11-19T05:26:44;4.90;;;1.70;;
10041;SDS011;5061;49.068;12.058;2023-11-19T05:30:05;2.43;;;2.00;;
10041;SDS011;5061;49.068;12.058;2023-11-19T05:33:30;2.20;;;2.00;;
10041;SDS011;5061;49.068;12.058;2023-11-19T05:36:51;1.53;;;1.43;;
10041;SDS011;5061;49.068;12.058;2023-11-19T05:40:11;2.00;;;1.83;;
10041;SDS011;5061;49.068;12.058;2023-11-19T05:43:34;1.80;;;1.70;;
10041;SDS011;5061;49.068;12.058;2023-11-19T05:46:55;1.87;;;1.70;;
10041;SDS011;5061;49.068;12.058;2023-11-19T05:50:16;2.00;;;1.87;;
10041;SDS011;5061;49.068;12.058;2023-11-19T05:53:36;1.73;;;1.63;;
10041;SDS011;5061;49.068;12.058;2023-11-19T05:56:57;3.50;;;2.20;;
10041;SDS011;5061;49.068;12.058;2023-11-19T06:00:17;2.33;;;1.97;;
10041;SDS011;5061;49.068;12.058;2023-11-19T06:03:38;2.30;;;2.10;;
10041;SDS011;5061;49.068;12.058;2023-11-19T06:06:59;2.07;;;1.80;;
10041;SDS011;5061;49.068;12.058;2023-11-19T06:10:19;2.40;;;2.17;;
10041;SDS011;5061;49.068;12.058;2023-11-19T06:13:40;2.30;;;2.10;;
10041;SDS011;5061;49.068;12.058;2023-11-19T06:17:01;2.80;;;2.30;;
10041;SDS011;5061;49.068;12.058;2023-11-19T06:20:21;2.00;;;1.80;;
10041;SDS011;5061;49.068;12.058;2023-11-19T06:23:42;2.00;;;1.90;;
10041;SDS011;5061;49.068;12.058;2023-11-19T06:27:03;2.47;;;2.27;;
10041;SDS011;5061;49.068;12.058;2023-11-19T06:30:24;2.30;;;2.10;;
10041;SDS011;5061;49.068;12.058;2023-11-19T06:33:45;3.07;;;2.77;;
10041;SDS011;5061;49.068;12.058;2023-11-19T06:37:06;2.30;;;2.00;;
10041;SDS011;5061;49.068;12.058;2023-11-19T06:40:29;2.57;;;2.37;;
10041;SDS011;5061;49.068;12.058;2023-11-19T06:43:50;3.33;;;2.40;;
10041;SDS011;5061;49.068;12.058;2023-11-19T06:47:12;4.30;;;3.13;;
10041;SDS011;5061;49.068;12.058;2023-11-19T06:50:32;2.53;;;2.33;;
10041;SDS011;5061;49.068;12.058;2023-11-19T06:53:53;2.37;;;2.13;;
10041;SDS011;5061;49.068;12.058;2023-11-19T06:57:14;2.83;;;2.53;;
10041;SDS011;5061;49.068;12.058;2023-11-19T07:00:35;3.30;;;2.60;;
10041;SDS011;5061;49.068;12.058;2023-11-19T07:03:56;2.70;;;2.50;;
10041;SDS011;5061;49.068;12.058;2023-11-19T07:07:18;2.23;;;2.03;;
10041;SDS011;5061;49.068;12.058;2023-11-19T07:10:38;2.37;;;2.10;;
10041;SDS011;5061;49.068;12.058;2023-11-19T07:14:02;4.03;;;2.63;;
10041;SDS011;5061;49.068;12.058;2023-11-19T07:17:23;2.43;;;2.13;;
10041;SDS011;5061;49.068;12.058;2023-11-19T07:20:44;1.80;;;1.70;;
10041;SDS011;5061;49.068;12.058;2023-11-19T07:24:06;2.63;;;2.43;;
10041;SDS011;5061;49.068;12.058;2023-11-19T07:27:27;2.13;;;1.93;;
10041;SDS011;5061;49.068;12.058;2023-11-19T07:30:47;1.73;;;1.63;;
10041;SDS011;5061;49.068;12.058;2023-11-19T07:34:08;2.00;;;1.70;;
10041;SDS011;5061;49.068;12.058;2023-11-19T07:37:29;2.23;;;2.00;;
10041;SDS011;5061;49.068;12.058;2023-11-19T07:40:49;2.90;;;1.90;;
10041;SDS011;5061;49.068;12.058;2023-11-19T07:44:10;2.00;;;1.90;;
10041;SDS011;5061;49.068;12.058;2023-11-19T07:47:31;2.20;;;2.00;;
10041;SDS011;5061;49.068;12.058;2023-11-19T07:50:52;2.27;;;2.07;;
10041;SDS011;5061;49.068;12.058;2023-11-19T07:54:13;2.33;;;2.13;;
10041;SDS011;5061;49.068;12.058;2023-11-19T07:57:34;2.87;;;2.47;;
10041;SDS011;5061;49.068;12.058;2023-11-19T08:00:54;2.30;;;2.03;;
10041;SDS011;5061;49.068;12.058;2023-11-19T08:04:15;2.40;;;2.20;;
10041;SDS011;5061;49.068;12.058;2023-11-19T08:07:35;2.63;;;2.30;;
10041;SDS011;5061;49.068;12.058;2023-11-19T08:10:56;4.50;;;1.97;;
10041;SDS011;5061;49.068;12.058;2023-11-19T08:14:17;2.00;;;1.87;;
10041;SDS011;5061;49.068;12.058;2023-11-19T08:17:38;2.00;;;1.90;;
10041;SDS011;5061;49.068;12.058;2023-11-19T08:20:58;2.00;;;1.80;;
10041;SDS011;5061;49.068;12.058;2023-11-19T08:24:20;1.80;;;1.70;;
10041;SDS011;5061;49.068;12.058;2023-11-19T08:27:41;2.37;;;1.60;;
10041;SDS011;5061;49.068;12.058;2023-11-19T08:31:03;2.40;;;2.20;;
10041;SDS011;5061;49.068;12.058;2023-11-19T08:34:25;1.77;;;1.60;;
10041;SDS011;5061;49.068;12.058;2023-11-19T08:37:45;2.20;;;2.00;;
10041;SDS011;5061;49.068;12.058;2023-11-19T08:41:06;2.37;;;2.17;;
10041;SDS011;5061;49.068;12.058;2023-11-19T08:44:27;3.27;;;2.70;;
10041;SDS011;5061;49.068;12.058;2023-11-19T08:47:47;2.03;;;1.90;;
10041;SDS011;5061;49.068;12.058;2023-11-19T08:51:08;3.37;;;2.90;;
10041;SDS011;5061;49.068;12.058;2023-11-19T08:54:28;2.63;;;2.33;;
10041;SDS011;5061;49.068;12.058;2023-11-19T08:57:49;2.10;;;1.90;;
10041;SDS011;5061;49.068;12.058;2023-11-19T09:01:10;2.60;;;2.00;;
10041;SDS011;5061;49.068;12.058;2023-11-19T09:04:31;3.03;;;1.97;;
10041;SDS011;5061;49.068;12.058;2023-11-19T09:07:51;4.57;;;3.10;;
10041;SDS011;5061;49.068;12.058;2023-11-19T09:11:12;3.13;;;2.63;;
10041;SDS011;5061;49.068;12.058;2023-11-19T09:14:33;3.07;;;2.57;;
10041;SDS011;5061;49.068;12.058;2023-11-19T09:17:53;2.10;;;1.90;;
10041;SDS011;5061;49.068;12.058;2023-11-19T09:21:17;3.30;;;2.47;;
10041;SDS011;5061;49.068;12.058;2023-11-19T09:24:40;2.90;;;2.57;;
10041;SDS011;5061;49.068;12.058;2023-11-19T09:28:01;3.53;;;2.83;;
10041;SDS011;5061;49.068;12.058;2023-11-19T09:31:22;2.13;;;1.93;;
10041;SDS011;5061;49.068;12.058;2023-11-19T09:34:42;2.53;;;2.30;;
10041;SDS011;5061;49.068;12.058;2023-11-19T09:38:03;3.57;;;2.70;;
10041;SDS011;5061;49.068;12.058;2023-11-19T09:41:25;3.03;;;2.40;;
10041;SDS011;5061;49.068;12.058;2023-11-19T09:44:48;3.03;;;2.67;;
10041;SDS011;5061;49.068;12.058;2023-11-19T09:48:09;2.83;;;2.33;;
10041;SDS011;5061;49.068;12.058;2023-11-19T09:51:30;2.90;;;2.57;;
10041;SDS011;5061;49.068;12.058;2023-11-19T09:54:51;2.57;;;2.20;;
10041;SDS011;5061;49.068;12.058;2023-11-19T09:58:12;2.57;;;2.37;;
10041;SDS011;5061;49.068;12.058;2023-11-19T10:01:34;2.37;;;2.13;;
10041;SDS011;5061;49.068;12.058;2023-11-19T10:04:55;3.23;;;2.70;;
10041;SDS011;5061;49.068;12.058;2023-11-19T10:08:18;2.37;;;2.10;;
10041;SDS011;5061;49.068;12.058;2023-11-19T10:11:38;2.50;;;2.30;;
10041;SDS011;5061;49.068;12.058;2023-11-19T10:14:59;3.23;;;2.77;;
10041;SDS011;5061;49.068;12.058;2023-11-19T10:18:23;6.00;;;3.00;;
10041;SDS011;5061;49.068;12.058;2023-11-19T10:21:45;3.07;;;2.10;;
10041;SDS011;5061;49.068;12.058;2023-11-19T10:25:25;4.03;;;3.43;;
10041;SDS011;5061;49.068;12.058;2023-11-19T10:28:48;2.97;;;2.67;;
10041;SDS011;5061;49.068;12.058;2023-11-19T10:32:13;4.47;;;3.67;;
10041;SDS011;5061;49.068;12.058;2023-11-19T10:35:53;4.00;;;2.70;;
10041;SDS011;5061;49.068;12.058;2023-11-19T10:39:16;5.80;;;3.53;;
10041;SDS011;5061;49.068;12.058;2023-11-19T10:42:38;5.30;;;3.30;;
10041;SDS011;5061;49.068;12.058;2023-11-19T10:46:11;6.10;;;3.80;;
10041;SDS011;5061;49.068;12.058;2023-11-19T10:49:33;4.57;;;3.63;;
10041;SDS011;5061;49.068;12.058;2023-11-19T10:52:55;3.73;;;3.10;;
10041;SDS011;5061;49.068;12.058;2023-11-19T10:56:20;4.20;;;3.07;;
10041;SDS011;5061;49.068;12.058;2023-11-19T10:59:44;3.70;;;3.03;;
10041;SDS011;5061;49.068;12.058;2023-11-19T11:03:16;3.60;;;2.90;;
10041;SDS011;5061;49.068;12.058;2023-11-19T11:06:37;3.20;;;2.60;;
10041;SDS011;5061;49.068;12.058;2023-11-19T11:09:59;2.70;;;2.20;;
10041;SDS011;5061;49.068;12.058;2023-11-19T11:13:22;3.17;;;2.30;;
10041;SDS011;5061;49.068;12.058;2023-11-19T11:16:49;2.47;;;2.27;;
10041;SDS011;5061;49.068;12.058;2023-11-19T11:20:11;2.57;;;2.20;;
10041;SDS011;5061;49.068;12.058;2023-11-19T11:34:38;2.30;;;2.10;;
10041;SDS011;5061;49.068;12.058;2023-11-19T11:38:10;2.90;;;2.33;;
10041;SDS011;5061;49.068;12.058;2023-11-19T11:41:33;2.27;;;2.07;;
10041;SDS011;5061;49.068;12.058;2023-11-19T11:44:57;3.30;;;2.77;;
10041;SDS011;5061;49.068;12.058;2023-11-19T11:48:24;3.30;;;3.00;;
10041;SDS011;5061;49.068;12.058;2023-11-19T11:52:00;3.00;;;2.20;;
10041;SDS011;5061;49.068;12.058;2023-11-19T11:56:06;4.00;;;2.40;;
10041;SDS011;5061;49.068;12.058;2023-11-19T11:59:20;3.87;;;3.00;;
10041;SDS011;5061;49.068;12.058;2023-11-19T12:02:44;4.27;;;3.23;;
10041;SDS011;5061;49.068;12.058;2023-11-19T12:06:05;3.07;;;2.57;;
10041;SDS011;5061;49.068;12.058;2023-11-19T12:09:25;3.90;;;2.73;;
10041;SDS011;5061;49.068;12.058;2023-11-19T12:12:46;3.40;;;2.70;;
10041;SDS011;5061;49.068;12.058;2023-11-19T12:16:07;2.23;;;1.87;;
10041;SDS011;5061;49.068;12.058;2023-11-19T12:19:28;2.53;;;1.60;;
10041;SDS011;5061;49.068;12.058;2023-11-19T12:22:49;1.40;;;1.17;;
10041;SDS011;5061;49.068;12.058;2023-11-19T12:26:30;2.43;;;1.17;;
10041;SDS011;5061;49.068;12.058;2023-11-19T12:29:53;1.23;;;1.10;;
10041;SDS011;5061;49.068;12.058;2023-11-19T12:33:14;1.30;;;1.20;;
10041;SDS011;5061;49.068;12.058;2023-11-19T12:36:36;1.63;;;1.30;;
10041;SDS011;5061;49.068;12.058;2023-11-19T12:39:57;1.20;;;1.10;;
10041;SDS011;5061;49.068;12.058;2023-11-19T12:43:21;3.30;;;1.50;;
10041;SDS011;5061;49.068;12.058;2023-11-19T12:46:42;4.77;;;1.50;;
10041;SDS011;5061;49.068;12.058;2023-11-19T12:50:03;1.43;;;1.33;;
10041;SDS011;5061;49.068;12.058;2023-11-19T12:53:24;2.70;;;1.30;;
10041;SDS011;5061;49.068;12.058;2023-11-19T12:56:52;1.97;;;1.47;;
10041;SDS011;5061;49.068;12.058;2023-11-19T13:00:20;3.63;;;1.13;;
10041;SDS011;5061;49.068;12.058;2023-11-19T13:03:42;3.13;;;1.33;;
10041;SDS011;5061;49.068;12.058;2023-11-19T13:07:03;1.20;;;1.10;;
10041;SDS011;5061;49.068;12.058;2023-11-19T13:10:25;1.77;;;1.27;;
10041;SDS011;5061;49.068;12.058;2023-11-19T13:13:59;6.60;;;1.40;;
10041;SDS011;5061;49.068;12.058;2023-11-19T13:17:21;1.80;;;1.20;;
10041;SDS011;5061;49.068;12.058;2023-11-19T13:20:41;1.53;;;0.80;;
10041;SDS011;5061;49.068;12.058;2023-11-19T13:24:02;1.30;;;1.20;;
10041;SDS011;5061;49.068;12.058;2023-11-19T13:27:23;1.40;;;1.17;;
10041;SDS011;5061;49.068;12.058;2023-11-19T13:30:44;1.83;;;1.10;;
10041;SDS011;5061;49.068;12.058;2023-11-19T13:34:04;2.37;;;1.50;;
10041;SDS011;5061;49.068;12.058;2023-11-19T13:37:27;1.47;;;1.00;;
10041;SDS011;5061;49.068;12.058;2023-11-19T13:40:48;1.00;;;0.90;;
10041;SDS011;5061;49.068;12.058;2023-11-19T13:44:08;0.93;;;0.83;;
10041;SDS011;5061;49.068;12.058;2023-11-19T13:47:29;3.63;;;1.20;;
10041;SDS011;5061;49.068;12.058;2023-11-19T13:50:50;1.77;;;1.10;;
10041;SDS011;5061;49.068;12.058;2023-11-19T13:54:10;4.27;;;2.00;;
10041;SDS011;5061;49.068;12.058;2023-11-19T13:57:37;3.40;;;1.90;;
10041;SDS011;5061;49.068;12.058;2023-11-19T14:00:59;2.57;;;1.30;;
10041;SDS011;5061;49.068;12.058;2023-11-19T14:04:19;2.60;;;1.40;;
10041;SDS011;5061;49.068;12.058;2023-11-19T14:07:41;1.60;;;1.43;;
10041;SDS011;5061;49.068;12.058;2023-11-19T14:11:01;3.47;;;1.50;;
10041;SDS011;5061;49.068;12.058;2023-11-19T14:14:22;4.60;;;1.10;;
10041;SDS011;5061;49.068;12.058;2023-11-19T14:17:43;9.97;;;1.83;;
10041;SDS011;5061;49.068;12.058;2023-11-19T14:21:04;0.90;;;0.80;;
10041;SDS011;5061;49.068;12.058;2023-11-19T14:24:25;4.17;;;1.00;;
10041;SDS011;5061;49.068;12.058;2023-11-19T14:27:45;3.23;;;1.00;;
10041;SDS011;5061;49.068;12.058;2023-11-19T14:31:06;1.57;;;1.00;;
10041;SDS011;5061;49.068;12.058;2023-11-19T14:34:27;1.70;;;0.80;;
10041;SDS011;5061;49.068;12.058;2023-11-19T14:37:47;1.00;;;0.80;;
10041;SDS011;5061;49.068;12.058;2023-11-19T14:41:08;2.40;;;0.90;;
10041;SDS011;5061;49.068;12.058;2023-11-19T14:44:29;2.60;;;0.90;;
10041;SDS011;5061;49.068;12.058;2023-11-19T14:47:50;2.83;;;1.10;;
10041;SDS011;5061;49.068;12.058;2023-11-19T14:51:12;4.30;;;1.00;;
10041;SDS011;5061;49.068;12.058;2023-11-19T14:54:33;2.40;;;1.00;;
10041;SDS011;5061;49.068;12.058;2023-11-19T14:57:53;1.57;;;1.23;;
10041;SDS011;5061;49.068;12.058;2023-11-19T15:01:14;3.17;;;1.00;;
10041;SDS011;5061;49.068;12.058;2023-11-19T15:04:35;1.77;;;1.00;;
10041;SDS011;5061;49.068;12.058;2023-11-19T15:07:55;4.07;;;1.20;;
10041;SDS011;5061;49.068;12.058;2023-11-19T15:11:16;1.33;;;0.90;;
10041;SDS011;5061;49.068;12.058;2023-11-19T15:14:37;2.73;;;1.10;;
10041;SDS011;5061;49.068;12.058;2023-11-19T15:17:58;1.20;;;1.00;;
10041;SDS011;5061;49.068;12.058;2023-11-19T15:21:18;1.23;;;0.90;;
10041;SDS011;5061;49.068;12.058;2023-11-19T15:24:39;0.80;;;0.73;;
10041;SDS011;5061;49.068;12.058;2023-11-19T15:28:01;1.00;;;0.80;;
10041;SDS011;5061;49.068;12.058;2023-11-19T15:31:22;1.00;;;0.87;;
10041;SDS011;5061;49.068;12.058;2023-11-19T15:34:43;1.30;;;0.90;;
10041;SDS011;5061;49.068;12.058;2023-11-19T15:38:03;4.70;;;1.67;;
10041;SDS011;5061;49.068;12.058;2023-11-19T15:41:24;3.70;;;1.73;;
10041;SDS011;5061;49.068;12.058;2023-11-19T15:44:45;1.80;;;1.37;;
10041;SDS011;5061;49.068;12.058;2023-11-19T15:48:06;3.20;;;1.87;;
10041;SDS011;5061;49.068;12.058;2023-11-19T15:51:26;1.70;;;1.50;;
10041;SDS011;5061;49.068;12.058;2023-11-19T15:54:47;1.50;;;1.20;;
10041;SDS011;5061;49.068;12.058;2023-11-19T15:58:08;1.27;;;1.17;;
10041;SDS011;5061;49.068;12.058;2023-11-19T16:01:28;1.77;;;0.90;;
10041;SDS011;5061;49.068;12.058;2023-11-19T16:04:50;1.93;;;1.30;;
10041;SDS011;5061;49.068;12.058;2023-11-19T16:08:12;1.80;;;1.30;;
10041;SDS011;5061;49.068;12.058;2023-11-19T16:11:33;1.43;;;1.20;;
10041;SDS011;5061;49.068;12.058;2023-11-19T16:14:54;3.63;;;1.27;;
10041;SDS011;5061;49.068;12.058;2023-11-19T16:18:15;1.83;;;1.40;;
10041;SDS011;5061;49.068;12.058;2023-11-19T16:21:35;1.47;;;1.07;;
10041;SDS011;5061;49.068;12.058;2023-11-19T16:24:56;2.70;;;1.23;;
10041;SDS011;5061;49.068;12.058;2023-11-19T16:28:17;1.40;;;1.30;;
10041;SDS011;5061;49.068;12.058;2023-11-19T16:31:38;2.30;;;1.37;;
10041;SDS011;5061;49.068;12.058;2023-11-19T16:35:02;4.67;;;1.17;;
10041;SDS011;5061;49.068;12.058;2023-11-19T16:38:23;2.00;;;0.97;;
10041;SDS011;5061;49.068;12.058;2023-11-19T16:41:46;1.00;;;0.90;;
10041;SDS011;5061;49.068;12.058;2023-11-19T16:45:07;1.63;;;1.00;;
10041;SDS011;5061;49.068;12.058;2023-11-19T16:48:31;1.53;;;1.00;;
10041;SDS011;5061;49.068;12.058;2023-11-19T16:51:54;1.20;;;0.90;;
10041;SDS011;5061;49.068;12.058;2023-11-19T16:55:15;1.20;;;1.00;;
10041;SDS011;5061;49.068;12.058;2023-11-19T16:58:36;1.30;;;1.00;;
10041;SDS011;5061;49.068;12.058;2023-11-19T17:01:57;1.07;;;0.80;;
10041;SDS011;5061;49.068;12.058;2023-11-19T17:05:17;1.20;;;0.93;;
10041;SDS011;5061;49.068;12.058;2023-11-19T17:08:38;1.30;;;0.83;;
10041;SDS011;5061;49.068;12.058;2023-11-19T17:11:58;1.90;;;1.27;;
10041;SDS011;5061;49.068;12.058;2023-11-19T17:15:19;1.57;;;1.00;;
10041;SDS011;5061;49.068;12.058;2023-11-19T17:18:41;1.20;;;1.00;;
10041;SDS011;5061;49.068;12.058;2023-11-19T17:22:02;1.77;;;1.00;;
10041;SDS011;5061;49.068;12.058;2023-11-19T17:25:23;1.00;;;0.90;;
10041;SDS011;5061;49.068;12.058;2023-11-19T17:28:43;1.60;;;1.20;;
10041;SDS011;5061;49.068;12.058;2023-11-19T17:32:04;1.47;;;1.20;;
10041;SDS011;5061;49.068;12.058;2023-11-19T17:35:25;2.07;;;1.23;;
10041;SDS011;5061;49.068;12.058;2023-11-19T17:38:45;3.13;;;1.97;;
10041;SDS011;5061;49.068;12.058;2023-11-19T17:42:06;2.80;;;1.60;;
10041;SDS011;5061;49.068;12.058;2023-11-19T17:45:27;2.60;;;2.17;;
10041;SDS011;5061;49.068;12.058;2023-11-19T17:48:47;4.20;;;2.20;;
10041;SDS011;5061;49.068;12.058;2023-11-19T17:52:09;4.20;;;1.70;;
10041;SDS011;5061;49.068;12.058;2023-11-19T17:55:30;1.97;;;1.50;;
10041;SDS011;5061;49.068;12.058;2023-11-19T17:58:50;2.20;;;1.30;;
10041;SDS011;5061;49.068;12.058;2023-11-19T18:02:12;4.80;;;2.00;;
10041;SDS011;5061;49.068;12.058;2023-11-19T18:05:32;2.63;;;1.40;;
10041;SDS011;5061;49.068;12.058;2023-11-19T18:08:53;4.30;;;1.70;;
10041;SDS011;5061;49.068;12.058;2023-11-19T18:12:14;3.40;;;1.60;;
10041;SDS011;5061;49.068;12.058;2023-11-19T18:15:34;6.80;;;2.53;;
10041;SDS011;5061;49.068;12.058;2023-11-19T18:18:55;2.30;;;1.67;;
10041;SDS011;5061;49.068;12.058;2023-11-19T18:22:16;7.50;;;2.77;;
10041;SDS011;5061;49.068;12.058;2023-11-19T18:25:36;3.27;;;1.40;;
10041;SDS011;5061;49.068;12.058;2023-11-19T18:28:57;3.00;;;1.97;;
10041;SDS011;5061;49.068;12.058;2023-11-19T18:32:18;1.50;;;1.30;;
10041;SDS011;5061;49.068;12.058;2023-11-19T18:35:38;1.63;;;1.33;;
10041;SDS011;5061;49.068;12.058;2023-11-19T18:38:59;2.60;;;1.40;;
10041;SDS011;5061;49.068;12.058;2023-11-19T18:42:19;1.10;;;1.00;;
10041;SDS011;5061;49.068;12.058;2023-11-19T18:45:40;1.13;;;1.00;;
10041;SDS011;5061;49.068;12.058;2023-11-19T18:49:00;1.50;;;1.23;;
10041;SDS011;5061;49.068;12.058;2023-11-19T18:52:22;1.20;;;1.03;;
10041;SDS011;5061;49.068;12.058;2023-11-19T18:55:43;3.43;;;1.13;;
10041;SDS011;5061;49.068;12.058;2023-11-19T18:59:03;2.10;;;1.10;;
10041;SDS011;5061;49.068;12.058;2023-11-19T19:02:30;1.97;;;0.83;;
10041;SDS011;5061;49.068;12.058;2023-11-19T19:05:51;3.47;;;1.43;;
10041;SDS011;5061;49.068;12.058;2023-11-19T19:09:11;1.77;;;1.60;;
10041;SDS011;5061;49.068;12.058;2023-11-19T19:12:32;3.17;;;0.93;;
10041;SDS011;5061;49.068;12.058;2023-11-19T19:15:54;1.67;;;1.10;;
10041;SDS011;5061;49.068;12.058;2023-11-19T19:19:15;1.33;;;1.03;;
10041;SDS011;5061;49.068;12.058;2023-11-19T19:22:36;1.77;;;1.10;;
10041;SDS011;5061;49.068;12.058;2023-11-19T19:25:57;1.40;;;1.30;;
10041;SDS011;5061;49.068;12.058;2023-11-19T19:29:18;1.57;;;1.20;;
10041;SDS011;5061;49.068;12.058;2023-11-19T19:32:39;0.90;;;0.80;;
10041;SDS011;5061;49.068;12.058;2023-11-19T19:36:04;1.00;;;0.90;;
10041;SDS011;5061;49.068;12.058;2023-11-19T19:39:26;2.47;;;1.10;;
10041;SDS011;5061;49.068;12.058;2023-11-19T19:42:48;2.53;;;1.73;;
10041;SDS011;5061;49.068;12.058;2023-11-19T19:46:08;2.37;;;1.40;;
10041;SDS011;5061;49.068;12.058;2023-11-19T19:49:29;2.70;;;1.40;;
10041;SDS011;5061;49.068;12.058;2023-11-19T19:52:49;3.13;;;1.57;;
10041;SDS011;5061;49.068;12.058;2023-11-19T19:56:10;2.70;;;1.67;;
10041;SDS011;5061;49.068;12.058;2023-11-19T19:59:31;1.70;;;1.30;;
10041;SDS011;5061;49.068;12.058;2023-11-19T20:02:53;3.50;;;1.43;;
10041;SDS011;5061;49.068;12.058;2023-11-19T20:06:14;2.87;;;1.27;;
10041;SDS011;5061;49.068;12.058;2023-11-19T20:09:35;1.70;;;1.40;;
10041;SDS011;5061;49.068;12.058;2023-11-19T20:12:58;1.30;;;1.20;;
10041;SDS011;5061;49.068;12.058;2023-11-19T20:16:21;7.40;;;1.37;;
10041;SDS011;5061;49.068;12.058;2023-11-19T20:19:41;1.93;;;1.30;;
10041;SDS011;5061;49.068;12.058;2023-11-19T20:23:02;3.00;;;1.30;;
10041;SDS011;5061;49.068;12.058;2023-11-19T20:26:23;1.63;;;1.33;;